createdAt,value
2022-09-04T00:02:53.290Z,99488.81
2022-09-04T00:05:33.623Z,99483.34
2022-09-04T00:08:36.085Z,99488.28
2022-09-04T00:11:25.474Z,99495.84
2022-09-04T00:14:01.025Z,99499.56
2022-09-04T00:16:41.108Z,99487.75
2022-09-04T00:19:18.227Z,99491.88
2022-09-04T00:21:53.383Z,99492.88
2022-09-04T00:24:28.791Z,99493.38
2022-09-04T00:27:05.977Z,99500.78
2022-09-04T00:29:45.274Z,99487.44
2022-09-04T00:32:24.944Z,99494.69
2022-09-04T00:35:10.525Z,99498.31
2022-09-04T00:37:51.754Z,99495.00
2022-09-04T00:40:31.158Z,99489.59
2022-09-04T00:43:49.599Z,99494.19
2022-09-04T00:47:05.913Z,99507.53
2022-09-04T00:50:23.018Z,99497.00
2022-09-04T00:53:18.565Z,99500.44
2022-09-04T00:56:10.004Z,99497.66
2022-09-04T00:59:01.346Z,99509.75
2022-09-04T01:01:29.453Z,99510.28
2022-09-04T01:04:22.728Z,99518.03
2022-09-04T01:07:11.085Z,99517.19
2022-09-04T01:10:10.096Z,99516.38
2022-09-04T01:12:49.111Z,99520.31
2022-09-04T01:15:29.366Z,99518.66
2022-09-04T01:18:11.666Z,99521.28
2022-09-04T01:20:56.288Z,99525.72
2022-09-04T01:24:18.108Z,99530.47
2022-09-04T01:27:05.021Z,99529.13
2022-09-04T01:33:07.583Z,99532.34
2022-09-04T01:36:16.534Z,99538.84
2022-09-04T01:38:59.701Z,99543.28
2022-09-04T01:41:38.349Z,99541.63
2022-09-04T01:44:11.512Z,99544.41
2022-09-04T01:47:10.411Z,99540.25
2022-09-04T01:49:58.284Z,99540.91
2022-09-04T01:52:41.875Z,99547.50
2022-09-04T01:55:37.769Z,99550.13
2022-09-04T01:58:18.783Z,99549.78
2022-09-04T02:01:00.511Z,99548.44
2022-09-04T02:03:44.003Z,99551.22
2022-09-04T02:06:26.257Z,99553.03
2022-09-04T02:09:15.354Z,99550.84
2022-09-04T02:12:02.271Z,99553.81
2022-09-04T02:14:52.005Z,99549.94
2022-09-04T02:17:40.930Z,99553.75
2022-09-04T02:20:21.266Z,99555.84
2022-09-04T02:23:04.017Z,99559.97
2022-09-04T02:25:41.101Z,99564.63
2022-09-04T02:28:24.069Z,99559.38
2022-09-04T02:31:05.440Z,99565.63
2022-09-04T02:33:43.649Z,99566.22
2022-09-04T02:36:21.130Z,99560.44
2022-09-04T02:39:03.392Z,99563.75
2022-09-04T02:41:42.345Z,99567.22
2022-09-04T02:44:37.587Z,99567.34
2022-09-04T02:47:23.080Z,99570.31
2022-09-04T02:50:01.658Z,99574.75
2022-09-04T02:52:56.591Z,99578.88
2022-09-04T02:55:48.877Z,99576.94
2022-09-04T02:58:31.293Z,99574.19
2022-09-04T03:01:11.942Z,99567.66
2022-09-04T03:03:52.147Z,99565.41
2022-09-04T03:06:42.134Z,99568.72
2022-09-04T03:09:18.837Z,99568.09
2022-09-04T03:11:57.528Z,99572.09
2022-09-04T03:14:36.182Z,99570.06
2022-09-04T03:17:16.142Z,99573.38
2022-09-04T03:19:53.276Z,99575.84
2022-09-04T03:22:30.835Z,99580.00
2022-09-04T03:25:36.714Z,99579.88
2022-09-04T03:28:11.735Z,99575.03
2022-09-04T03:30:41.204Z,99576.69
2022-09-04T03:33:22.816Z,99575.59
2022-09-04T03:36:03.139Z,99581.38
2022-09-04T03:38:47.771Z,99584.81
2022-09-04T03:41:31.646Z,99583.31
2022-09-04T03:44:22.483Z,99591.91
2022-09-04T03:47:05.859Z,99582.38
2022-09-04T03:49:46.181Z,99583.03
2022-09-04T03:52:28.031Z,99584.69
2022-09-04T03:55:33.141Z,99588.28
2022-09-04T03:58:20.527Z,99593.56
2022-09-04T04:01:04.176Z,99598.81
2022-09-04T04:04:14.874Z,99600.47
2022-09-04T04:06:53.858Z,99598.81
2022-09-04T04:09:54.794Z,99610.19
2022-09-04T04:12:53.383Z,99604.53
2022-09-04T04:15:56.481Z,99604.00
2022-09-04T04:19:03.092Z,99615.97
2022-09-04T04:21:45.152Z,99615.97
2022-09-04T04:24:50.458Z,99614.03
2022-09-04T04:27:41.861Z,99626.50
2022-09-04T04:30:12.457Z,99627.47
2022-09-04T04:33:08.264Z,99631.75
2022-09-04T04:35:44.840Z,99635.91
2022-09-04T04:38:51.625Z,99636.19
2022-09-04T04:41:40.467Z,99648.38
2022-09-04T04:44:16.691Z,99648.63
2022-09-04T04:47:07.727Z,99647.00
2022-09-04T04:50:04.978Z,99652.78
2022-09-04T04:52:51.490Z,99652.50
2022-09-04T04:55:35.368Z,99646.94
2022-09-04T04:58:52.878Z,99665.06
2022-09-04T05:01:46.853Z,99672.44
2022-09-04T05:04:31.769Z,99671.09
2022-09-04T05:07:06.848Z,99669.47
2022-09-04T05:09:46.572Z,99677.53
2022-09-04T05:12:28.542Z,99678.31
2022-09-04T05:15:08.493Z,99695.34
2022-09-04T05:20:49.024Z,99696.56
2022-09-04T05:23:33.559Z,99703.25
2022-09-04T05:26:16.387Z,99702.84
2022-09-04T05:28:58.044Z,99716.59
2022-09-04T05:31:40.876Z,99713.91
2022-09-04T05:34:31.200Z,99725.09
2022-09-04T05:37:10.437Z,99726.69
2022-09-04T05:39:56.744Z,99735.28
2022-09-04T05:43:02.890Z,99736.72
2022-09-04T05:45:48.909Z,99742.00
2022-09-04T05:48:25.497Z,99753.47
2022-09-04T05:51:50.268Z,99736.50
2022-09-04T05:54:50.146Z,99737.41
2022-09-04T05:57:44.055Z,99751.91
2022-09-04T06:00:16.166Z,99766.72
2022-09-04T06:03:26.607Z,99773.97
2022-09-04T06:06:11.094Z,99773.56
2022-09-04T06:09:12.630Z,99775.47
2022-09-04T06:12:22.519Z,99782.97
2022-09-04T06:15:15.847Z,99779.09
2022-09-04T06:18:23.631Z,99785.03
2022-09-04T06:21:15.992Z,99783.53
2022-09-04T06:24:13.954Z,99781.84
2022-09-04T06:27:11.203Z,99788.75
2022-09-04T06:30:03.433Z,99793.38
2022-09-04T06:33:15.322Z,99796.59
2022-09-04T06:36:14.021Z,99802.63
2022-09-04T06:39:05.151Z,99807.72
2022-09-04T06:41:57.551Z,99806.47
2022-09-04T06:44:43.697Z,99815.13
2022-09-04T06:47:29.535Z,99817.97
2022-09-04T06:50:20.581Z,99816.56
2022-09-04T06:53:06.507Z,99814.13
2022-09-04T06:55:49.933Z,99811.00
2022-09-04T06:58:48.965Z,99817.19
2022-09-04T07:01:30.940Z,99817.22
2022-09-04T07:04:19.970Z,99820.28
2022-09-04T07:07:03.001Z,99828.34
2022-09-04T07:09:39.538Z,99827.78
2022-09-04T07:12:53.968Z,99819.38
2022-09-04T07:16:07.534Z,99834.16
2022-09-04T07:19:16.692Z,99831.13
2022-09-04T07:21:54.117Z,99836.50
2022-09-04T07:24:51.881Z,99841.50
2022-09-04T07:27:44.474Z,99841.25
2022-09-04T07:30:15.650Z,99850.97
2022-09-04T07:32:52.428Z,99840.75
2022-09-04T07:35:28.241Z,99849.50
2022-09-04T07:38:19.414Z,99839.47
2022-09-04T07:40:56.678Z,99845.34
2022-09-04T07:43:42.236Z,99846.88
2022-09-04T07:46:21.139Z,99845.78
2022-09-04T07:49:01.084Z,99845.16
2022-09-04T07:51:39.448Z,99847.97
2022-09-04T07:54:56.377Z,99850.00
2022-09-04T07:58:13.175Z,99855.38
2022-09-04T08:00:58.929Z,99855.84
2022-09-04T08:03:54.068Z,99855.06
2022-09-04T08:06:33.555Z,99864.06
2022-09-04T08:09:37.113Z,99867.84
2022-09-04T08:12:38.653Z,99864.28
2022-09-04T08:15:18.558Z,99870.03
2022-09-04T08:18:11.553Z,99867.81
2022-09-04T08:20:49.982Z,99884.09
2022-09-04T08:23:51.677Z,99881.50
2022-09-04T08:26:35.612Z,99884.78
2022-09-04T08:29:31.486Z,99883.75
2022-09-04T08:32:25.402Z,99885.44
2022-09-04T08:35:25.349Z,99891.84
2022-09-04T08:38:18.620Z,99890.53
2022-09-04T08:41:36.202Z,99889.28
2022-09-04T08:44:46.078Z,99885.56
2022-09-04T08:48:01.716Z,99895.00
2022-09-04T08:51:23.718Z,99895.81
2022-09-04T08:54:28.225Z,99902.84
2022-09-04T08:57:31.039Z,99906.16
2022-09-04T09:00:08.289Z,99898.72
2022-09-04T09:03:51.111Z,99897.75
2022-09-04T09:07:01.782Z,99899.53
2022-09-04T09:10:33.239Z,99894.03
2022-09-04T09:14:15.083Z,99888.56
2022-09-04T09:17:12.783Z,99879.69
2022-09-04T09:19:58.958Z,99882.56
2022-09-04T09:23:18.071Z,99874.75
2022-09-04T09:26:24.645Z,99881.28
2022-09-04T09:29:33.031Z,99882.13
2022-09-04T09:32:37.627Z,99884.50
2022-09-04T09:35:57.068Z,99872.81
2022-09-04T09:39:17.075Z,99881.72
2022-09-04T09:42:23.361Z,99878.03
2022-09-04T09:45:54.069Z,99877.50
2022-09-04T09:49:02.178Z,99881.09
2022-09-04T09:52:25.600Z,99873.16
2022-09-04T09:55:43.524Z,99869.41
2022-09-04T09:58:56.788Z,99876.06
2022-09-04T10:02:07.100Z,99871.81
2022-09-04T10:05:43.414Z,99868.47
2022-09-04T10:09:09.399Z,99877.47
2022-09-04T10:12:19.523Z,99876.16
2022-09-04T10:15:48.913Z,99877.22
2022-09-04T10:19:12.518Z,99877.41
2022-09-04T10:22:36.740Z,99873.13
2022-09-04T10:25:41.234Z,99873.03
2022-09-04T10:28:29.833Z,99872.66
2022-09-04T10:31:41.568Z,99868.94
2022-09-04T10:34:56.736Z,99870.44
2022-09-04T10:37:53.352Z,99869.31
2022-09-04T10:40:28.528Z,99866.25
2022-09-04T10:43:38.650Z,99858.72
2022-09-04T10:46:23.096Z,99851.38
2022-09-04T10:49:30.599Z,99854.56
2022-09-04T10:52:42.226Z,99859.72
2022-09-04T10:56:01.241Z,99860.97
2022-09-04T10:58:47.316Z,99847.03
2022-09-04T11:02:01.889Z,99841.69
2022-09-04T11:05:06.514Z,99857.25
2022-09-04T11:08:17.493Z,99855.94
2022-09-04T11:11:09.613Z,99863.56
2022-09-04T11:14:11.864Z,99862.19
2022-09-04T11:17:16.531Z,99856.97
2022-09-04T11:20:40.641Z,99865.56
2022-09-04T11:23:59.893Z,99857.38
2022-09-04T11:27:26.415Z,99850.22
2022-09-04T11:30:06.794Z,99839.38
2022-09-04T11:33:26.410Z,99837.75
2022-09-04T11:36:51.978Z,99837.50
2022-09-04T11:40:03.711Z,99842.53
2022-09-04T11:42:40.287Z,99848.03
2022-09-04T11:45:49.839Z,99835.22
2022-09-04T11:48:40.469Z,99841.59
2022-09-04T11:51:50.127Z,99823.06
2022-09-04T11:54:53.176Z,99828.81
2022-09-04T11:57:38.240Z,99824.00
2022-09-04T12:00:11.866Z,99830.47
2022-09-04T12:03:23.748Z,99819.78
2022-09-04T12:06:11.502Z,99826.88
2022-09-04T12:09:27.695Z,99819.84
2022-09-04T12:12:21.577Z,99832.97
2022-09-04T12:15:17.681Z,99831.56
2022-09-04T12:18:40.196Z,99822.97
2022-09-04T12:21:46.384Z,99828.59
2022-09-04T12:24:41.325Z,99837.09
2022-09-04T12:27:32.841Z,99840.66
2022-09-04T12:30:18.812Z,99826.72
2022-09-04T12:33:44.600Z,99827.06
2022-09-04T12:36:58.242Z,99830.50
2022-09-04T12:40:00.826Z,99820.25
2022-09-04T12:42:37.437Z,99827.75
2022-09-04T12:45:24.618Z,99837.66
2022-09-04T12:48:09.447Z,99831.56
2022-09-04T12:50:48.237Z,99828.81
2022-09-04T12:53:40.970Z,99832.44
2022-09-04T12:56:15.608Z,99831.09
2022-09-04T12:59:16.242Z,99838.72
2022-09-04T13:02:01.912Z,99835.72
2022-09-04T13:04:44.773Z,99819.88
2022-09-04T13:07:35.198Z,99834.63
2022-09-04T13:10:24.632Z,99831.50
2022-09-04T13:13:10.056Z,99821.06
2022-09-04T13:15:55.452Z,99837.75
2022-09-04T13:18:41.298Z,99834.16
2022-09-04T13:21:27.944Z,99832.59
2022-09-04T13:24:17.479Z,99836.19
2022-09-04T13:27:11.685Z,99829.97
2022-09-04T13:30:03.007Z,99838.50
2022-09-04T13:33:10.583Z,99836.09
2022-09-04T13:35:55.763Z,99830.97
2022-09-04T13:38:58.373Z,99834.41
2022-09-04T13:41:58.638Z,99830.16
2022-09-04T13:44:58.088Z,99821.47
2022-09-04T13:47:32.447Z,99829.41
2022-09-04T13:50:10.982Z,99820.06
2022-09-04T13:52:48.461Z,99825.97
2022-09-04T13:55:23.103Z,99824.25
2022-09-04T13:58:03.352Z,99821.31
2022-09-04T14:00:35.284Z,99827.09
2022-09-04T14:03:12.518Z,99821.53
2022-09-04T14:05:41.325Z,99821.91
2022-09-04T14:08:16.615Z,99818.66
2022-09-04T14:11:31.166Z,99825.47
2022-09-04T14:15:35.779Z,99813.09
2022-09-04T14:18:25.260Z,99805.91
2022-09-04T14:21:06.476Z,99813.50
2022-09-04T14:23:56.475Z,99817.56
2022-09-04T14:26:43.279Z,99808.31
2022-09-04T14:29:29.479Z,99821.13
2022-09-04T14:32:16.630Z,99805.91
2022-09-04T14:34:59.959Z,99828.19
2022-09-04T14:38:01.434Z,99811.31
2022-09-04T14:40:34.697Z,99809.66
2022-09-04T14:43:16.018Z,99822.22
2022-09-04T14:46:16.161Z,99823.50
2022-09-04T14:48:49.585Z,99824.88
2022-09-04T14:51:32.774Z,99820.88
2022-09-04T14:54:00.526Z,99825.66
2022-09-04T14:56:34.847Z,99821.59
2022-09-04T14:59:15.853Z,99822.34
2022-09-04T15:02:24.485Z,99819.72
2022-09-04T15:05:00.992Z,99811.88
2022-09-04T15:07:53.634Z,99810.81
2022-09-04T15:10:29.559Z,99807.88
2022-09-04T15:13:28.535Z,99810.56
2022-09-04T15:16:08.302Z,99812.59
2022-09-04T15:18:54.237Z,99816.69
2022-09-04T15:21:34.873Z,99807.19
2022-09-04T15:24:23.246Z,99813.59
2022-09-04T15:27:04.803Z,99806.88
2022-09-04T15:29:44.344Z,99802.97
2022-09-04T15:32:22.085Z,99806.69
2022-09-04T15:35:11.300Z,99805.88
2022-09-04T15:37:44.232Z,99804.63
2022-09-04T15:40:24.334Z,99802.59
2022-09-04T15:43:03.724Z,99801.16
2022-09-04T15:45:42.633Z,99803.59
2022-09-04T15:48:26.131Z,99800.72
2022-09-04T15:51:12.396Z,99796.81
2022-09-04T15:53:51.058Z,99797.56
2022-09-04T15:56:34.641Z,99800.09
2022-09-04T15:59:12.150Z,99801.09
2022-09-04T16:01:51.147Z,99797.44
2022-09-04T16:04:33.232Z,99797.88
2022-09-04T16:07:33.923Z,99793.09
2022-09-04T16:10:13.010Z,99797.63
2022-09-04T16:15:55.255Z,99800.03
2022-09-04T16:18:49.099Z,99795.69
2022-09-04T16:21:37.195Z,99792.00
2022-09-04T16:24:15.451Z,99801.25
2022-09-04T16:30:54.469Z,99784.44
2022-09-04T16:36:59.205Z,99771.81
2022-09-04T16:48:33.504Z,99777.66
2022-09-04T16:51:45.154Z,99771.91
2022-09-04T16:54:29.117Z,99764.13
2022-09-04T16:57:12.858Z,99777.88
2022-09-04T16:59:46.392Z,99767.63
2022-09-04T17:03:02.797Z,99781.38
2022-09-04T17:05:45.129Z,99783.03
2022-09-04T17:08:21.582Z,99783.06
2022-09-04T17:10:55.904Z,99780.41
2022-09-04T17:13:37.028Z,99778.97
2022-09-04T17:16:14.541Z,99779.81
2022-09-04T17:18:49.414Z,99786.78
2022-09-04T17:23:47.118Z,99788.25
2022-09-04T17:28:58.744Z,99782.28
2022-09-04T17:29:17.146Z,99783.13
2022-09-04T17:30:09.521Z,99782.31
2022-09-04T17:40:13.723Z,99782.94
2022-09-04T17:40:44.478Z,99784.97
2022-09-04T17:40:52.233Z,99780.25
2022-09-04T17:42:09.235Z,99781.28
2022-09-04T17:48:06.363Z,99771.19
2022-09-04T17:50:51.426Z,99788.84
2022-09-04T17:53:34.325Z,99781.06
2022-09-04T17:56:11.931Z,99789.66
2022-09-04T17:58:50.118Z,99792.50
2022-09-04T18:01:25.030Z,99795.75
2022-09-04T18:04:21.423Z,99797.34
2022-09-04T18:06:59.345Z,99807.75
2022-09-04T18:09:38.172Z,99811.22
2022-09-04T18:12:18.661Z,99811.59
2022-09-04T18:15:32.880Z,99813.22
2022-09-04T18:17:58.410Z,99819.38
2022-09-04T18:20:37.881Z,99812.38
2022-09-04T18:23:51.300Z,99823.66
2022-09-04T18:26:35.779Z,99815.63
2022-09-04T18:32:55.697Z,99826.66
2022-09-04T18:37:19.202Z,99840.25
2022-09-04T18:37:22.650Z,99831.72
2022-09-04T18:39:08.909Z,99845.25
2022-09-04T18:50:23.363Z,99853.53
2022-09-04T18:50:32.964Z,99857.88
2022-09-04T18:50:36.090Z,99852.16
2022-09-04T18:51:20.117Z,99857.22
2022-09-04T18:53:46.531Z,99871.66
2022-09-04T18:56:20.941Z,99867.78
2022-09-04T18:58:59.135Z,99867.78
2022-09-04T19:01:44.318Z,99873.94
2022-09-04T19:04:41.147Z,99866.13
2022-09-04T19:07:21.791Z,99877.69
2022-09-04T19:10:07.418Z,99878.72
2022-09-04T19:12:59.635Z,99880.09
2022-09-04T19:15:42.671Z,99878.75
2022-09-04T19:18:26.263Z,99883.78
2022-09-04T19:21:19.945Z,99880.97
2022-09-04T19:23:57.194Z,99887.72
2022-09-04T19:26:40.647Z,99887.63
2022-09-04T19:29:18.807Z,99886.91
2022-09-04T19:31:57.678Z,99884.53
2022-09-04T19:34:40.193Z,99878.94
2022-09-04T19:38:19.273Z,99882.94
2022-09-04T19:46:19.010Z,99872.19
2022-09-04T19:46:19.137Z,99874.75
2022-09-04T19:47:27.228Z,99864.00
2022-09-04T19:53:19.640Z,99876.81
2022-09-04T19:53:49.504Z,99856.19
2022-09-04T19:57:31.139Z,99871.09
2022-09-04T20:04:14.182Z,99870.53
2022-09-04T20:10:36.983Z,99853.28
2022-09-04T20:14:18.133Z,99862.94
2022-09-04T22:29:12.089Z,99932.56
2022-09-04T22:32:44.340Z,99902.63
2022-09-04T22:36:28.260Z,99923.97
2022-09-04T22:40:01.313Z,99935.94
2022-09-04T22:43:47.192Z,99928.91
2022-09-04T22:46:55.902Z,99933.41
2022-09-04T22:50:48.738Z,99925.25
2022-09-04T22:54:16.430Z,99916.88
2022-09-04T22:57:14.831Z,99926.03
2022-09-04T23:00:22.830Z,99919.00
2022-09-04T23:03:22.764Z,99918.75
2022-09-04T23:12:54.741Z,99907.78
2022-09-04T23:13:47.438Z,99906.34
2022-09-04T23:13:49.991Z,99925.09
2022-09-04T23:17:06.487Z,99921.16
2022-09-04T23:26:35.125Z,99923.34
2022-09-04T23:28:52.281Z,99908.84
2022-09-04T23:49:07.780Z,99924.44
2022-09-04T23:55:48.895Z,99922.25
2022-09-04T23:59:11.141Z,99942.59
